createdAt,value
2023-03-04T00:01:53.306Z,101537.97
2023-03-04T00:04:23.529Z,101535.56
2023-03-04T00:06:53.754Z,101536.03
2023-03-04T00:09:24.047Z,101547.94
2023-03-04T00:11:55.086Z,101546.75
2023-03-04T00:14:25.559Z,101558.75
2023-03-04T00:16:55.969Z,101553.53
2023-03-04T00:19:26.299Z,101563.09
2023-03-04T00:21:56.497Z,101566.53
2023-03-04T00:24:26.719Z,101571.00
2023-03-04T00:26:57.019Z,101576.41
2023-03-04T00:29:27.299Z,101578.53
2023-03-04T00:31:57.590Z,101589.44
2023-03-04T00:34:28.017Z,101591.41
2023-03-04T00:37:02.721Z,101588.97
2023-03-04T00:39:32.923Z,101603.38
2023-03-04T00:42:03.409Z,101602.84
2023-03-04T00:44:33.750Z,101600.59
2023-03-04T00:47:04.275Z,101606.44
2023-03-04T00:49:34.562Z,101605.25
2023-03-04T00:52:07.858Z,101602.22
2023-03-04T00:54:41.497Z,101606.22
2023-03-04T00:57:15.756Z,101611.25
2023-03-04T00:59:47.683Z,101607.72
2023-03-04T01:02:17.933Z,101627.72
2023-03-04T01:04:48.124Z,101632.09
2023-03-04T01:07:22.613Z,101622.59
2023-03-04T01:09:52.979Z,101623.22
2023-03-04T01:12:23.209Z,101636.38
2023-03-04T01:14:53.628Z,101638.03
2023-03-04T01:17:24.470Z,101635.13
2023-03-04T01:19:54.751Z,101642.22
2023-03-04T01:22:25.006Z,101641.03
2023-03-04T01:24:55.135Z,101649.75
2023-03-04T01:27:25.510Z,101644.00
2023-03-04T01:29:56.177Z,101647.31
2023-03-04T01:32:26.423Z,101652.34
2023-03-04T01:34:56.720Z,101656.75
2023-03-04T01:37:26.955Z,101655.72
2023-03-04T01:39:57.398Z,101660.72
2023-03-04T01:42:29.685Z,101663.25
2023-03-04T01:44:59.989Z,101665.75
2023-03-04T01:47:32.001Z,101670.16
2023-03-04T01:50:03.552Z,101671.63
2023-03-04T01:52:34.543Z,101670.59
2023-03-04T01:55:04.822Z,101675.81
2023-03-04T01:57:36.947Z,101681.84
2023-03-04T02:00:25.533Z,101683.56
2023-03-04T02:03:04.126Z,101682.50
2023-03-04T02:05:34.816Z,101685.91
2023-03-04T02:08:05.450Z,101689.22
2023-03-04T02:10:36.031Z,101693.63
2023-03-04T02:13:08.656Z,101695.19
2023-03-04T02:15:38.997Z,101688.00
2023-03-04T02:18:19.507Z,101692.75
2023-03-04T02:20:53.015Z,101642.94
2023-03-04T02:23:30.642Z,101694.41
2023-03-04T02:26:17.104Z,101701.53
2023-03-04T02:28:48.313Z,101703.84
2023-03-04T02:31:30.961Z,101705.34
2023-03-04T02:34:03.203Z,101710.56
2023-03-04T02:36:34.066Z,101699.47
2023-03-04T02:39:07.537Z,101702.53
2023-03-04T02:41:38.153Z,101713.19
2023-03-04T02:44:19.021Z,101701.72
2023-03-04T02:46:49.539Z,101706.50
2023-03-04T02:49:20.864Z,101704.25
2023-03-04T02:52:02.482Z,101704.50
2023-03-04T02:54:33.312Z,101711.81
2023-03-04T02:57:06.624Z,101711.72
2023-03-04T02:59:39.930Z,101708.88
2023-03-04T03:02:10.710Z,101706.28
2023-03-04T03:04:41.965Z,101707.63
2023-03-04T03:07:15.843Z,101701.75
2023-03-04T03:09:46.698Z,101700.25
2023-03-04T03:12:17.081Z,101703.31
2023-03-04T03:14:47.269Z,101697.59
2023-03-04T03:17:21.216Z,101689.88
2023-03-04T03:19:52.214Z,101699.31
2023-03-04T03:22:22.588Z,101689.41
2023-03-04T03:24:52.929Z,101691.25
2023-03-04T03:27:23.144Z,101683.88
2023-03-04T03:29:53.906Z,101677.66
2023-03-04T03:32:24.169Z,101678.47
2023-03-04T03:34:54.472Z,101679.69
2023-03-04T03:37:24.806Z,101675.97
2023-03-04T03:39:54.981Z,101665.22
2023-03-04T03:42:25.153Z,101679.03
2023-03-04T03:44:55.745Z,101667.41
2023-03-04T03:47:26.241Z,101662.69
2023-03-04T03:49:57.019Z,101652.94
2023-03-04T03:52:27.224Z,101656.44
2023-03-04T03:54:57.958Z,101647.53
2023-03-04T03:57:29.939Z,101610.44
2023-03-04T04:00:00.117Z,101634.06
2023-03-04T04:02:30.473Z,101629.03
2023-03-04T04:05:01.671Z,101621.59
2023-03-04T04:07:31.896Z,101622.44
2023-03-04T04:10:02.422Z,101616.19
2023-03-04T04:12:32.810Z,101613.34
2023-03-04T04:15:03.366Z,101612.09
2023-03-04T04:17:33.657Z,101604.94
2023-03-04T04:20:03.983Z,101596.47
2023-03-04T04:22:34.629Z,101594.44
2023-03-04T04:25:06.431Z,101586.00
2023-03-04T04:27:36.706Z,101591.38
2023-03-04T04:30:07.573Z,101589.34
2023-03-04T04:32:37.945Z,101580.25
2023-03-04T04:35:08.788Z,101574.88
2023-03-04T04:37:39.362Z,101575.53
2023-03-04T04:40:10.740Z,101572.84
2023-03-04T04:42:40.923Z,101570.34
2023-03-04T04:45:11.226Z,101563.09
2023-03-04T04:47:41.566Z,101560.38
2023-03-04T04:50:12.060Z,101550.22
2023-03-04T04:52:42.442Z,101544.50
2023-03-04T04:55:13.280Z,101543.47
2023-03-04T04:57:43.564Z,101537.88
2023-03-04T05:00:14.120Z,101540.41
2023-03-04T05:02:44.317Z,101528.22
2023-03-04T05:05:14.492Z,101524.50
2023-03-04T05:07:44.897Z,101520.41
2023-03-04T05:10:15.036Z,101511.94
2023-03-04T05:12:46.150Z,101505.53
2023-03-04T05:15:16.711Z,101499.94
2023-03-04T05:17:47.290Z,101498.13
2023-03-04T05:20:17.541Z,101494.00
2023-03-04T05:22:47.800Z,101486.56
2023-03-04T05:25:18.004Z,101480.81
2023-03-04T05:27:48.386Z,101467.09
2023-03-04T05:30:18.629Z,101463.41
2023-03-04T05:32:48.894Z,101458.84
2023-03-04T05:35:19.355Z,101451.78
2023-03-04T05:37:50.171Z,101447.84
2023-03-04T05:40:20.461Z,101449.34
2023-03-04T05:42:50.684Z,101436.31
2023-03-04T05:45:21.154Z,101429.91
2023-03-04T05:47:51.565Z,101423.94
2023-03-04T05:50:22.433Z,101418.72
2023-03-04T05:52:55.459Z,101408.75
2023-03-04T05:55:26.680Z,101412.50
2023-03-04T05:57:56.933Z,101408.75
2023-03-04T06:00:27.217Z,101399.28
2023-03-04T06:02:57.481Z,101395.53
2023-03-04T06:05:27.735Z,101389.75
2023-03-04T06:07:58.189Z,101388.75
2023-03-04T06:10:28.452Z,101375.25
2023-03-04T06:12:58.773Z,101374.91
2023-03-04T06:15:29.598Z,101367.06
2023-03-04T06:17:59.897Z,101358.97
2023-03-04T06:20:30.261Z,101354.19
2023-03-04T06:23:00.533Z,101352.16
2023-03-04T06:25:31.127Z,101356.50
2023-03-04T06:28:01.536Z,101350.94
2023-03-04T06:30:31.805Z,101353.44
2023-03-04T06:33:02.097Z,101341.34
2023-03-04T06:35:32.503Z,101331.66
2023-03-04T06:38:02.654Z,101340.78
2023-03-04T06:40:32.889Z,101325.81
2023-03-04T06:43:03.048Z,101323.13
2023-03-04T06:45:33.217Z,101325.41
2023-03-04T06:48:03.509Z,101312.97
2023-03-04T06:50:33.633Z,101306.09
2023-03-04T06:53:03.882Z,101300.28
2023-03-04T06:55:34.076Z,101299.47
2023-03-04T06:58:04.502Z,101292.81
2023-03-04T07:00:35.622Z,101286.59
2023-03-04T07:03:05.937Z,101290.13
2023-03-04T07:05:36.952Z,101274.97
2023-03-04T07:08:08.494Z,101267.50
2023-03-04T07:10:38.670Z,101260.81
2023-03-04T07:13:08.909Z,101263.44
2023-03-04T07:15:39.362Z,101256.72
2023-03-04T07:18:09.580Z,101253.06
2023-03-04T07:20:40.033Z,101253.81
2023-03-04T07:23:10.355Z,101247.63
2023-03-04T07:25:40.574Z,101245.16
2023-03-04T07:28:10.807Z,101236.88
2023-03-04T07:30:41.028Z,101233.19
2023-03-04T07:33:11.278Z,101233.84
2023-03-04T07:35:42.000Z,101228.66
2023-03-04T07:38:12.476Z,101229.13
2023-03-04T07:40:43.075Z,101222.88
2023-03-04T07:43:14.481Z,101225.81
2023-03-04T07:45:44.966Z,101217.91
2023-03-04T07:48:15.254Z,101211.88
2023-03-04T07:50:45.634Z,101211.03
2023-03-04T07:53:15.781Z,101206.66
2023-03-04T07:55:49.353Z,101202.72
2023-03-04T07:58:21.320Z,101200.44
2023-03-04T08:00:51.637Z,101202.78
2023-03-04T08:03:21.828Z,101202.13
2023-03-04T08:05:53.128Z,101195.47
2023-03-04T08:08:23.652Z,101166.53
2023-03-04T08:10:53.858Z,101190.03
2023-03-04T08:13:25.844Z,101191.47
2023-03-04T08:15:57.945Z,101187.72
2023-03-04T08:18:28.182Z,101191.69
2023-03-04T08:20:58.812Z,101185.44
2023-03-04T08:23:31.689Z,101178.75
2023-03-04T08:26:07.354Z,101183.75
2023-03-04T08:28:38.152Z,101179.59
2023-03-04T08:31:08.478Z,101182.09
2023-03-04T08:33:38.903Z,101180.84
2023-03-04T08:36:09.871Z,101173.31
2023-03-04T08:38:40.649Z,101188.94
2023-03-04T08:41:10.958Z,101178.50
2023-03-04T08:43:41.804Z,101179.13
2023-03-04T08:46:12.004Z,101184.34
2023-03-04T08:48:42.366Z,101180.38
2023-03-04T08:51:14.898Z,101180.13
2023-03-04T08:53:46.878Z,101186.63
2023-03-04T08:56:17.564Z,101180.13
2023-03-04T08:58:47.946Z,101179.94
2023-03-04T09:01:18.725Z,101174.72
2023-03-04T09:03:49.153Z,101182.22
2023-03-04T09:06:20.069Z,101186.19
2023-03-04T09:08:50.207Z,101184.50
2023-03-04T09:11:20.636Z,101185.72
2023-03-04T09:13:52.676Z,101181.94
2023-03-04T09:16:24.558Z,101179.59
2023-03-04T09:18:54.831Z,101181.06
2023-03-04T09:21:25.204Z,101187.72
2023-03-04T09:23:55.682Z,101180.22
2023-03-04T09:26:27.595Z,101179.38
2023-03-04T09:28:59.160Z,101193.75
2023-03-04T09:31:30.124Z,101194.38
2023-03-04T09:34:00.908Z,101192.69
2023-03-04T09:36:31.255Z,101192.69
2023-03-04T09:39:03.053Z,101201.47
2023-03-04T09:41:38.790Z,101135.97
2023-03-04T09:44:16.976Z,101205.81
2023-03-04T09:46:48.491Z,101201.25
2023-03-04T09:49:21.216Z,101206.88
2023-03-04T09:52:16.920Z,101209.41
2023-03-04T09:55:05.525Z,101211.25
2023-03-04T09:57:44.569Z,101222.72
2023-03-04T10:00:33.190Z,101225.03
2023-03-04T10:03:12.379Z,101228.56
2023-03-04T10:05:52.034Z,101229.63
2023-03-04T10:08:34.533Z,101239.22
2023-03-04T10:11:07.051Z,101238.97
2023-03-04T10:13:45.649Z,101236.91
2023-03-04T10:16:20.207Z,101235.25
2023-03-04T10:19:16.422Z,101232.72
2023-03-04T10:21:47.977Z,101246.09
2023-03-04T10:24:23.885Z,101250.44
2023-03-04T10:26:55.674Z,101244.41
2023-03-04T10:29:26.346Z,101248.19
2023-03-04T10:31:57.913Z,101251.09
2023-03-04T10:34:28.816Z,101257.34
2023-03-04T10:37:03.593Z,101250.25
2023-03-04T10:39:38.152Z,101259.22
2023-03-04T10:42:24.538Z,101254.47
2023-03-04T10:44:57.624Z,101265.97
2023-03-04T10:47:30.169Z,101270.56
2023-03-04T10:50:01.575Z,101262.44
2023-03-04T10:52:32.129Z,101257.00
2023-03-04T10:55:04.316Z,101263.63
2023-03-04T10:57:39.528Z,101272.38
2023-03-04T11:00:28.232Z,101263.44
2023-03-04T11:03:17.368Z,101266.53
2023-03-04T11:05:47.586Z,101274.47
2023-03-04T11:08:21.382Z,101269.88
2023-03-04T11:10:53.766Z,101276.34
2023-03-04T11:13:25.771Z,101279.06
2023-03-04T11:16:00.869Z,101286.16
2023-03-04T11:18:32.162Z,101289.91
2023-03-04T11:21:02.956Z,101294.06
2023-03-04T11:23:55.158Z,101291.56
2023-03-04T11:26:36.882Z,101298.03
2023-03-04T11:29:16.780Z,101295.34
2023-03-04T11:31:56.004Z,101294.69
2023-03-04T11:34:29.430Z,101292.81
2023-03-04T11:37:18.136Z,101297.41
2023-03-04T11:39:53.077Z,101299.28
2023-03-04T11:42:26.754Z,101306.59
2023-03-04T11:44:57.543Z,101310.34
2023-03-04T11:47:39.112Z,101306.19
2023-03-04T11:50:20.177Z,101317.84
2023-03-04T11:52:50.441Z,101322.66
2023-03-04T11:55:20.842Z,101318.28
2023-03-04T11:58:14.322Z,101323.69
2023-03-04T12:00:50.261Z,101329.56
2023-03-04T12:03:46.968Z,101334.59
2023-03-04T12:06:37.689Z,101338.97
2023-03-04T12:09:08.851Z,101339.19
2023-03-04T12:11:45.217Z,101347.91
2023-03-04T12:14:23.798Z,101343.13
2023-03-04T12:17:09.730Z,101352.06
2023-03-04T12:19:50.403Z,101349.97
2023-03-04T12:22:21.257Z,101357.91
2023-03-04T12:24:54.597Z,101357.91
2023-03-04T12:27:43.344Z,101353.31
2023-03-04T12:30:31.637Z,101357.91
2023-03-04T12:33:07.704Z,101357.91
2023-03-04T12:35:41.108Z,101357.91
2023-03-04T12:38:29.583Z,101359.75
2023-03-04T12:41:23.170Z,101369.56
2023-03-04T12:44:18.273Z,101355.41
2023-03-04T12:46:48.553Z,101362.69
2023-03-04T12:49:25.337Z,101360.41
2023-03-04T12:52:15.569Z,101374.13
2023-03-04T12:54:51.985Z,101358.31
2023-03-04T12:57:26.248Z,101374.16
2023-03-04T13:00:11.674Z,101368.72
2023-03-04T13:02:48.355Z,101379.16
2023-03-04T13:05:24.357Z,101372.47
2023-03-04T13:08:14.259Z,101376.19
2023-03-04T13:10:44.698Z,101387.88
2023-03-04T13:13:35.414Z,101388.69
2023-03-04T13:16:25.433Z,101395.34
2023-03-04T13:18:55.912Z,101399.94
2023-03-04T13:21:33.742Z,101402.00
2023-03-04T13:24:23.643Z,101402.00
2023-03-04T13:26:53.870Z,101413.84
2023-03-04T13:29:27.481Z,101417.59
2023-03-04T13:32:11.737Z,101419.06
2023-03-04T13:34:56.122Z,101425.91
2023-03-04T13:37:34.808Z,101432.78
2023-03-04T13:40:24.750Z,101433.56
2023-03-04T13:42:55.295Z,101433.94
2023-03-04T13:45:32.816Z,101443.50
2023-03-04T13:48:04.827Z,101444.38
2023-03-04T13:50:43.208Z,101456.31
2023-03-04T13:53:25.296Z,101452.97
2023-03-04T13:56:07.463Z,101457.78
2023-03-04T13:58:38.751Z,101464.03
2023-03-04T14:01:23.939Z,101470.75
2023-03-04T14:03:54.395Z,101476.38
2023-03-04T14:06:26.609Z,101469.91
2023-03-04T14:08:57.444Z,101475.75
2023-03-04T14:11:30.500Z,101477.03
2023-03-04T14:14:02.682Z,101487.44
2023-03-04T14:16:34.453Z,101486.56
2023-03-04T14:19:06.341Z,101482.50
2023-03-04T14:21:39.954Z,101480.09
2023-03-04T14:24:14.241Z,101481.72
2023-03-04T14:26:45.190Z,101480.16
2023-03-04T14:29:26.845Z,101486.72
2023-03-04T14:31:58.747Z,101483.91
2023-03-04T14:34:39.173Z,101489.63
2023-03-04T14:37:26.527Z,101494.75
2023-03-04T14:39:59.473Z,101484.84
2023-03-04T14:42:38.698Z,101498.69
2023-03-04T14:45:09.204Z,101489.81
2023-03-04T14:47:46.661Z,101500.31
2023-03-04T14:50:19.360Z,101501.91
2023-03-04T14:52:53.123Z,101504.34
2023-03-04T14:55:24.711Z,101499.72
2023-03-04T14:57:59.831Z,101502.13
2023-03-04T15:00:35.399Z,101500.84
2023-03-04T15:03:09.558Z,101498.94
2023-03-04T15:05:39.751Z,101494.09
2023-03-04T15:08:26.847Z,101498.16
2023-03-04T15:11:01.612Z,101498.72
2023-03-04T15:13:49.457Z,101504.50
2023-03-04T15:16:21.411Z,101507.75
2023-03-04T15:19:03.702Z,101506.63
2023-03-04T15:21:38.260Z,101516.59
2023-03-04T15:24:10.012Z,101502.00
2023-03-04T15:26:42.282Z,101509.81
2023-03-04T15:29:15.433Z,101501.44
2023-03-04T15:31:46.012Z,101504.72
2023-03-04T15:34:20.814Z,101512.97
2023-03-04T15:36:52.884Z,101505.25
2023-03-04T15:39:24.874Z,101502.09
2023-03-04T15:41:57.038Z,101503.94
2023-03-04T15:44:27.371Z,101502.19
2023-03-04T15:46:57.637Z,101498.75
2023-03-04T15:49:27.921Z,101494.00
2023-03-04T15:51:58.193Z,101491.75
2023-03-04T15:54:30.426Z,101491.59
2023-03-04T15:57:01.660Z,101491.97
2023-03-04T15:59:32.069Z,101487.56
2023-03-04T16:02:02.449Z,101491.97
2023-03-04T16:04:32.658Z,101486.56
2023-03-04T16:07:02.969Z,101483.22
2023-03-04T16:09:34.140Z,101486.94
2023-03-04T16:12:07.319Z,101482.19
2023-03-04T16:14:37.513Z,101470.00
2023-03-04T16:17:09.734Z,101477.16
2023-03-04T16:19:40.160Z,101469.31
2023-03-04T16:22:12.342Z,101476.47
2023-03-04T16:24:42.773Z,101472.88
2023-03-04T16:27:17.130Z,101462.16
2023-03-04T16:29:47.782Z,101464.66
2023-03-04T16:32:18.120Z,101460.47
2023-03-04T16:34:49.218Z,101462.53
2023-03-04T16:37:20.884Z,101462.09
2023-03-04T16:39:51.109Z,101458.25
2023-03-04T16:42:23.444Z,101457.59
2023-03-04T16:44:53.672Z,101459.00
2023-03-04T16:47:24.271Z,101458.34
2023-03-04T16:49:54.888Z,101450.66
2023-03-04T16:52:25.087Z,101449.22
2023-03-04T16:54:55.333Z,101449.50
2023-03-04T16:57:25.777Z,101447.06
2023-03-04T16:59:56.699Z,101442.97
2023-03-04T17:02:28.497Z,101440.56
2023-03-04T17:05:00.517Z,101432.72
2023-03-04T17:07:33.862Z,101430.69
2023-03-04T17:10:04.116Z,101433.13
2023-03-04T17:12:34.342Z,101433.69
2023-03-04T17:15:05.690Z,101428.00
2023-03-04T17:17:35.999Z,101424.84
2023-03-04T17:20:11.594Z,101423.72
2023-03-04T17:22:42.012Z,101421.63
2023-03-04T17:25:13.529Z,101416.56
2023-03-04T17:27:44.258Z,101418.19
2023-03-04T17:30:14.907Z,101420.31
2023-03-04T17:33:08.176Z,101416.03
2023-03-04T17:35:40.028Z,101411.72
2023-03-04T17:38:10.415Z,101404.94
2023-03-04T17:40:40.688Z,101398.16
2023-03-04T17:43:13.399Z,101398.41
2023-03-04T17:45:44.333Z,101397.00
2023-03-04T17:48:16.532Z,101386.97
2023-03-04T17:50:53.322Z,101393.09
2023-03-04T17:53:23.818Z,101391.84
2023-03-04T17:55:58.143Z,101379.72
2023-03-04T17:58:29.131Z,101380.50
2023-03-04T18:01:07.240Z,101378.19
2023-03-04T18:03:37.364Z,101370.53
2023-03-04T18:06:07.836Z,101369.97
2023-03-04T18:08:38.208Z,101365.84
2023-03-04T18:11:08.519Z,101357.38
2023-03-04T18:13:42.305Z,101347.91
2023-03-04T18:16:15.464Z,101350.88
2023-03-04T18:18:46.218Z,101342.41
2023-03-04T18:21:17.097Z,101336.72
2023-03-04T18:23:47.511Z,101341.19
2023-03-04T18:26:20.816Z,101341.13
2023-03-04T18:28:51.907Z,101330.25
2023-03-04T18:31:22.647Z,101335.41
2023-03-04T18:33:53.266Z,101332.72
2023-03-04T18:36:23.495Z,101332.94
2023-03-04T18:38:53.727Z,101327.19
2023-03-04T18:41:25.266Z,101326.59
2023-03-04T18:43:57.472Z,101331.22
2023-03-04T18:46:41.806Z,101329.19
2023-03-04T18:49:12.333Z,101319.72
2023-03-04T18:51:42.499Z,101328.00
2023-03-04T18:54:12.881Z,101327.91
2023-03-04T18:56:49.056Z,101331.56
2023-03-04T18:59:21.743Z,101327.75
2023-03-04T19:01:52.864Z,101325.00
2023-03-04T19:04:25.023Z,101323.13
2023-03-04T19:06:55.506Z,101319.84
2023-03-04T19:09:25.844Z,101324.84
2023-03-04T19:11:56.195Z,101314.53
2023-03-04T19:14:26.323Z,101313.94
2023-03-04T19:16:56.766Z,101316.28
2023-03-04T19:19:27.204Z,101305.09
2023-03-04T19:21:57.346Z,101305.72
2023-03-04T19:24:27.590Z,101314.19
2023-03-04T19:26:57.703Z,101303.38
2023-03-04T19:29:28.010Z,101304.97
2023-03-04T19:31:58.198Z,101305.09
2023-03-04T19:34:28.408Z,101310.66
2023-03-04T19:36:58.584Z,101310.47
2023-03-04T19:39:28.793Z,101306.56
2023-03-04T19:41:59.142Z,101305.97
2023-03-04T19:44:29.417Z,101305.63
2023-03-04T19:46:59.731Z,101307.94
2023-03-04T19:49:29.912Z,101304.00
2023-03-04T19:52:00.380Z,101301.94
2023-03-04T19:54:30.716Z,101297.75
2023-03-04T19:57:00.890Z,101303.28
2023-03-04T19:59:31.113Z,101308.44
2023-03-04T20:02:02.709Z,101313.56
2023-03-04T20:04:32.990Z,101304.81
2023-03-04T20:07:03.608Z,101309.00
2023-03-04T20:09:34.977Z,101302.41
2023-03-04T20:12:05.896Z,101315.50
2023-03-04T20:14:38.034Z,101305.34
2023-03-04T20:17:08.384Z,101306.84
2023-03-04T20:19:38.596Z,101304.75
2023-03-04T20:22:10.190Z,101300.84
2023-03-04T20:24:40.946Z,101306.22
2023-03-04T20:27:13.030Z,101305.78
2023-03-04T20:29:43.165Z,101307.78
2023-03-04T20:32:13.529Z,101313.94
2023-03-04T20:34:43.702Z,101308.94
2023-03-04T20:37:13.924Z,101319.34
2023-03-04T20:39:44.068Z,101302.13
2023-03-04T20:42:15.008Z,101309.00
2023-03-04T20:44:45.209Z,101304.44
2023-03-04T20:47:16.166Z,101314.84
2023-03-04T20:49:46.528Z,101307.41
2023-03-04T20:52:17.387Z,101307.84
2023-03-04T20:54:48.028Z,101302.91
2023-03-04T20:57:18.151Z,101305.78
2023-03-04T20:59:48.333Z,101306.34
2023-03-04T21:02:21.060Z,101305.28
2023-03-04T21:04:51.436Z,101311.44
2023-03-04T21:07:22.045Z,101304.56
2023-03-04T21:09:52.203Z,101301.88
2023-03-04T21:12:22.413Z,101310.59
2023-03-04T21:14:53.222Z,101309.56
2023-03-04T21:17:23.380Z,101308.56
2023-03-04T21:19:53.606Z,101310.22
2023-03-04T21:22:23.813Z,101307.34
2023-03-04T21:24:54.035Z,101311.53
2023-03-04T21:27:24.400Z,101316.91
2023-03-04T21:29:55.354Z,101315.63
2023-03-04T21:32:26.930Z,101323.44
2023-03-04T21:34:57.651Z,101321.50
2023-03-04T21:37:28.291Z,101324.19
2023-03-04T21:39:59.544Z,101324.19
2023-03-04T21:42:29.791Z,101324.84
2023-03-04T21:45:00.012Z,101334.59
2023-03-04T21:47:30.351Z,101333.59
2023-03-04T21:50:00.571Z,101341.31
2023-03-04T21:52:30.901Z,101344.63
2023-03-04T21:55:02.031Z,101340.94
2023-03-04T21:57:32.160Z,101337.56
2023-03-04T22:00:02.714Z,101347.09
2023-03-04T22:02:41.633Z,101353.22
2023-03-04T22:05:11.861Z,101351.94
2023-03-04T22:07:42.409Z,101364.75
2023-03-04T22:10:12.893Z,101362.72
2023-03-04T22:12:43.165Z,101369.78
2023-03-04T22:15:13.832Z,101374.16
2023-03-04T22:17:46.981Z,101372.09
2023-03-04T22:20:17.335Z,101372.09
2023-03-04T22:22:47.532Z,101380.66
2023-03-04T22:25:18.340Z,101376.28
2023-03-04T22:27:48.533Z,101384.84
2023-03-04T22:30:19.505Z,101391.63
2023-03-04T22:32:51.073Z,101394.03
2023-03-04T22:35:21.331Z,101399.53
2023-03-04T22:37:51.596Z,101399.91
2023-03-04T22:40:22.112Z,101407.16
2023-03-04T22:42:52.347Z,101407.00
2023-03-04T22:45:23.010Z,101408.66
2023-03-04T22:47:54.258Z,101410.31
2023-03-04T22:50:24.916Z,101414.06
2023-03-04T22:52:55.260Z,101431.50
2023-03-04T22:55:25.741Z,101430.50
2023-03-04T22:57:56.096Z,101434.88
2023-03-04T23:00:27.626Z,101437.41
2023-03-04T23:02:58.720Z,101436.19
2023-03-04T23:05:29.026Z,101443.63
2023-03-04T23:07:59.159Z,101447.31
2023-03-04T23:10:29.485Z,101451.69
2023-03-04T23:13:00.670Z,101451.69
2023-03-04T23:15:30.853Z,101463.16
2023-03-04T23:18:01.456Z,101456.91
2023-03-04T23:20:31.751Z,101467.69
2023-03-04T23:23:02.644Z,101468.53
2023-03-04T23:25:36.149Z,101462.78
2023-03-04T23:28:06.533Z,101462.78
2023-03-04T23:30:36.904Z,101474.19
2023-03-04T23:33:07.130Z,101477.75
2023-03-04T23:35:37.352Z,101481.94
2023-03-04T23:38:07.595Z,101490.03
2023-03-04T23:40:37.796Z,101486.28
2023-03-04T23:43:08.832Z,101492.34
2023-03-04T23:45:39.291Z,101497.75
2023-03-04T23:48:10.478Z,101491.97
2023-03-04T23:50:40.914Z,101497.00
2023-03-04T23:53:11.058Z,101500.06
2023-03-04T23:55:43.158Z,101509.44
2023-03-04T23:58:13.601Z,101519.69
